Time;durP1;ratioP1;P1;durP2;ratioP2;P2;SDS_P1;SDS_P2;PMS_P1;PMS_P2;Temp;Humidity;BMP_temperature;BMP_pressure;BME280_temperature;BME280_humidity;BME280_pressure;Samples;Min_cycle;Max_cycle;Signal;HPM_P1;HPM_P2
2022/05/08 00:00:34;;;;;;;14.38;3.80;;;;;;;;;;5011400;28;20041;-67
2022/05/08 00:03:00;;;;;;;24.20;4.55;;;;;;;;;;5010701;28;20495;-67
2022/05/08 00:05:26;;;;;;;20.42;4.03;;;;;;;;;;5013423;28;20489;-67
2022/05/08 00:07:52;;;;;;;19.92;4.35;;;;;;;;;;5014623;28;20049;-67
2022/05/08 00:10:18;;;;;;;18.30;4.65;;;;;;;;;;5014263;28;20473;-67
2022/05/08 00:12:44;;;;;;;24.85;4.28;;;;;;;;;;5014853;28;20045;-67
2022/05/08 00:15:11;;;;;;;19.35;4.05;;;;;;;;;;5014672;28;20738;-67
2022/05/08 00:17:37;;;;;;;21.60;4.07;;;;;;;;;;5014387;28;20081;-67
2022/05/08 00:20:04;;;;;;;22.48;4.60;;;;;;;;;;5014513;28;20041;-67
2022/05/08 00:22:30;;;;;;;17.70;3.65;;;;;;;;;;5014752;28;20117;-67
2022/05/08 00:24:56;;;;;;;19.80;4.07;;;;;;;;;;5014640;28;20095;-67
2022/05/08 00:27:23;;;;;;;16.55;3.53;;;;;;;;;;5014115;28;20563;-67
2022/05/08 00:29:49;;;;;;;21.13;4.00;;;;;;;;;;5014486;28;20530;-67
2022/05/08 00:32:15;;;;;;;20.33;4.00;;;;;;;;;;5014437;28;20124;-67
2022/05/08 00:34:41;;;;;;;26.55;4.53;;;;;;;;;;5013830;28;20592;-67
2022/05/08 00:37:07;;;;;;;16.42;4.03;;;;;;;;;;5013057;28;20085;-67
2022/05/08 00:39:33;;;;;;;16.17;4.30;;;;;;;;;;5014287;28;20453;-67
2022/05/08 00:42:02;;;;;;;19.27;4.47;;;;;;;;;;5013750;28;20512;-67
2022/05/08 00:44:28;;;;;;;19.85;4.28;;;;;;;;;;5014315;28;20050;-67
2022/05/08 00:46:54;;;;;;;20.23;4.07;;;;;;;;;;5013213;28;20100;-67
2022/05/08 00:49:20;;;;;;;20.70;4.60;;;;;;;;;;5013394;28;20630;-67
2022/05/08 00:51:49;;;;;;;21.02;4.35;;;;;;;;;;5014169;28;20057;-67
2022/05/08 00:54:16;;;;;;;21.30;4.07;;;;;;;;;;5014213;28;20089;-67
2022/05/08 00:56:42;;;;;;;18.17;4.65;;;;;;;;;;5013422;28;20056;-67
2022/05/08 00:59:09;;;;;;;23.52;4.70;;;;;;;;;;5013988;28;20045;-67
2022/05/08 01:01:35;;;;;;;17.90;4.05;;;;;;;;;;5013747;28;20034;-67
2022/05/08 01:04:01;;;;;;;20.92;4.65;;;;;;;;;;5013355;28;20133;-67
2022/05/08 01:06:27;;;;;;;21.95;3.92;;;;;;;;;;5013700;28;20058;-67
2022/05/08 01:08:54;;;;;;;19.25;4.32;;;;;;;;;;5013610;28;20046;-67
2022/05/08 01:11:21;;;;;;;17.85;4.63;;;;;;;;;;5011963;28;20042;-67
2022/05/08 01:13:48;;;;;;;20.30;4.43;;;;;;;;;;5013690;28;20133;-67
2022/05/08 01:16:14;;;;;;;19.65;4.40;;;;;;;;;;5012842;28;20128;-67
2022/05/08 01:18:41;;;;;;;17.15;4.47;;;;;;;;;;5012928;28;20128;-67
2022/05/08 01:21:13;;;;;;;19.45;4.45;;;;;;;;;;5013312;28;20046;-67
2022/05/08 01:23:39;;;;;;;22.75;4.40;;;;;;;;;;5013544;28;20038;-67
2022/05/08 01:26:05;;;;;;;25.10;4.90;;;;;;;;;;5012791;28;20042;-67
2022/05/08 01:28:31;;;;;;;16.98;3.72;;;;;;;;;;5013370;28;20400;-67
2022/05/08 01:30:57;;;;;;;16.67;4.65;;;;;;;;;;5013335;28;20064;-67
2022/05/08 01:33:24;;;;;;;21.52;5.28;;;;;;;;;;5011532;28;20528;-67
2022/05/08 01:35:50;;;;;;;15.88;4.00;;;;;;;;;;5012067;28;20041;-67
2022/05/08 01:38:17;;;;;;;18.48;4.07;;;;;;;;;;5012132;28;20068;-67
2022/05/08 01:40:43;;;;;;;23.13;4.65;;;;;;;;;;5011604;28;20038;-67
2022/05/08 01:43:10;;;;;;;18.45;4.55;;;;;;;;;;5010677;28;20064;-67
2022/05/08 01:45:36;;;;;;;16.75;4.90;;;;;;;;;;5011755;28;20080;-67
2022/05/08 01:50:47;;;;;;;19.63;4.68;;;;;;;;;;5011922;28;20450;-66
2022/05/08 01:53:13;;;;;;;17.73;4.13;;;;;;;;;;5011732;28;20042;-66
2022/05/08 01:55:39;;;;;;;17.45;5.13;;;;;;;;;;5010958;28;20074;-66
2022/05/08 01:58:06;;;;;;;19.23;4.50;;;;;;;;;;5011624;28;20045;-66
2022/05/08 02:00:32;;;;;;;19.08;4.13;;;;;;;;;;5011473;28;20092;-66
2022/05/08 02:02:59;;;;;;;15.52;4.43;;;;;;;;;;5010870;28;20088;-66
2022/05/08 02:05:26;;;;;;;17.70;4.60;;;;;;;;;;5011367;28;20080;-66
2022/05/08 02:07:52;;;;;;;17.50;4.10;;;;;;;;;;5011214;28;20050;-66
2022/05/08 02:10:18;;;;;;;19.23;4.70;;;;;;;;;;5010802;28;20506;-66
2022/05/08 02:12:45;;;;;;;18.15;3.70;;;;;;;;;;5011377;28;20077;-66
2022/05/08 02:15:12;;;;;;;19.73;4.93;;;;;;;;;;5011469;28;20046;-67
2022/05/08 02:17:38;;;;;;;20.42;4.40;;;;;;;;;;5010654;28;20037;-67
2022/05/08 02:20:06;;;;;;;15.52;4.28;;;;;;;;;;5011300;28;20404;-67
2022/05/08 02:22:32;;;;;;;16.80;4.50;;;;;;;;;;5011348;28;20451;-67
2022/05/08 02:24:59;;;;;;;21.42;5.20;;;;;;;;;;5010386;28;20073;-67
2022/05/08 02:27:25;;;;;;;25.25;5.22;;;;;;;;;;5010803;28;20042;-67
2022/05/08 02:29:51;;;;;;;15.30;4.68;;;;;;;;;;5010990;28;20088;-67
2022/05/08 02:32:18;;;;;;;17.85;4.43;;;;;;;;;;5010480;28;20496;-67
2022/05/08 02:34:44;;;;;;;16.60;3.95;;;;;;;;;;5010939;28;20048;-67
2022/05/08 02:37:10;;;;;;;23.70;4.75;;;;;;;;;;5010904;28;20068;-67
2022/05/08 02:39:36;;;;;;;31.73;5.30;;;;;;;;;;5010256;28;20207;-67
2022/05/08 02:42:02;;;;;;;21.55;4.68;;;;;;;;;;5010789;28;20433;-67
2022/05/08 02:44:28;;;;;;;15.90;4.60;;;;;;;;;;5010874;28;20045;-67
2022/05/08 02:46:54;;;;;;;15.73;4.38;;;;;;;;;;5010226;28;20473;-66
2022/05/08 02:49:20;;;;;;;19.38;4.50;;;;;;;;;;5010576;28;20474;-66
2022/05/08 02:51:46;;;;;;;15.10;4.32;;;;;;;;;;5011137;28;20036;-66
2022/05/08 02:54:12;;;;;;;19.35;4.55;;;;;;;;;;5010166;28;20041;-66
2022/05/08 02:59:22;;;;;;;16.63;4.25;;;;;;;;;;5010673;28;20050;-66
2022/05/08 03:01:48;;;;;;;16.70;4.22;;;;;;;;;;5008915;28;20056;-66
2022/05/08 03:04:14;;;;;;;24.42;4.90;;;;;;;;;;5010756;28;20038;-66
2022/05/08 03:06:40;;;;;;;14.15;4.20;;;;;;;;;;5010513;28;20065;-66
2022/05/08 03:09:06;;;;;;;12.68;4.45;;;;;;;;;;5009951;28;20414;-66
2022/05/08 03:11:33;;;;;;;15.25;4.40;;;;;;;;;;5010567;28;20042;-66
2022/05/08 03:14:00;;;;;;;18.90;5.03;;;;;;;;;;5010637;28;20042;-66
2022/05/08 03:16:29;;;;;;;20.15;4.43;;;;;;;;;;5024884;28;20507;-66
2022/05/08 03:18:55;;;;;;;15.85;4.07;;;;;;;;;;5010200;28;20049;-66
2022/05/08 03:21:22;;;;;;;14.85;4.78;;;;;;;;;;5010522;28;20047;-66
2022/05/08 03:23:48;;;;;;;15.18;4.35;;;;;;;;;;5009946;28;20056;-66
2022/05/08 03:26:19;;;;;;;16.20;4.72;;;;;;;;;;5010423;28;20042;-66
2022/05/08 03:28:45;;;;;;;13.95;4.72;;;;;;;;;;5010164;28;20080;-66
2022/05/08 03:31:11;;;;;;;17.15;4.80;;;;;;;;;;5009699;28;20076;-66
2022/05/08 03:33:38;;;;;;;14.95;4.43;;;;;;;;;;5010493;28;20048;-66
2022/05/08 03:36:04;;;;;;;17.33;3.67;;;;;;;;;;5010463;28;20046;-66
2022/05/08 03:38:30;;;;;;;18.88;4.20;;;;;;;;;;5024483;28;20042;-66
2022/05/08 03:40:56;;;;;;;21.70;4.43;;;;;;;;;;5013535;28;20429;-66
2022/05/08 03:43:23;;;;;;;13.93;4.70;;;;;;;;;;5014214;28;20459;-66
2022/05/08 03:45:49;;;;;;;15.52;3.85;;;;;;;;;;5013583;28;20434;-66
2022/05/08 03:48:16;;;;;;;15.20;4.53;;;;;;;;;;5028946;28;20050;-66
2022/05/08 03:50:42;;;;;;;17.15;4.88;;;;;;;;;;5014015;28;20096;-66
2022/05/08 03:53:08;;;;;;;15.15;4.47;;;;;;;;;;5013398;28;20489;-66
2022/05/08 03:55:34;;;;;;;22.38;4.43;;;;;;;;;;5028784;28;20504;-66
2022/05/08 03:58:00;;;;;;;14.23;4.25;;;;;;;;;;5013847;28;20053;-66
2022/05/08 04:00:27;;;;;;;14.45;4.35;;;;;;;;;;5013280;28;20050;-66
2022/05/08 04:02:53;;;;;;;18.33;5.13;;;;;;;;;;5013753;28;20053;-66
2022/05/08 04:05:19;;;;;;;16.30;4.45;;;;;;;;;;5013503;28;20038;-66
2022/05/08 04:07:45;;;;;;;11.05;3.97;;;;;;;;;;5012663;28;20050;-66
2022/05/08 04:10:12;;;;;;;12.20;3.80;;;;;;;;;;5013473;28;20049;-66
2022/05/08 04:12:39;;;;;;;12.05;3.80;;;;;;;;;;5013711;28;20048;-66
2022/05/08 04:15:05;;;;;;;18.95;5.25;;;;;;;;;;5011608;28;20081;-66
2022/05/08 04:17:32;;;;;;;16.40;5.10;;;;;;;;;;5013191;28;20052;-66
2022/05/08 04:19:58;;;;;;;16.42;4.82;;;;;;;;;;5013174;28;20046;-66
2022/05/08 04:25:10;;;;;;;20.23;4.90;;;;;;;;;;5013340;28;20038;-66
2022/05/08 04:27:36;;;;;;;15.00;4.30;;;;;;;;;;5013404;28;20536;-66
2022/05/08 04:30:03;;;;;;;17.67;4.35;;;;;;;;;;5012199;28;20105;-66
2022/05/08 04:32:29;;;;;;;20.83;4.65;;;;;;;;;;5013290;28;20108;-66
2022/05/08 04:34:55;;;;;;;18.25;4.68;;;;;;;;;;5013293;28;20425;-66
2022/05/08 04:37:21;;;;;;;17.98;5.15;;;;;;;;;;5012457;28;20049;-66
2022/05/08 04:39:47;;;;;;;16.70;4.45;;;;;;;;;;5012835;28;20172;-67
2022/05/08 04:42:13;;;;;;;22.55;5.18;;;;;;;;;;5013309;28;20034;-67
2022/05/08 04:44:39;;;;;;;20.25;5.07;;;;;;;;;;5012164;28;20045;-67
2022/05/08 04:47:05;;;;;;;17.05;4.85;;;;;;;;;;5013004;28;20168;-66
2022/05/08 04:49:31;;;;;;;14.02;4.95;;;;;;;;;;5012520;28;20050;-66
2022/05/08 04:51:57;;;;;;;18.83;4.88;;;;;;;;;;5011124;28;20597;-66
2022/05/08 04:54:24;;;;;;;15.80;4.85;;;;;;;;;;5013029;28;20091;-66
2022/05/08 04:56:51;;;;;;;19.27;4.40;;;;;;;;;;5012830;28;20061;-66
2022/05/08 04:59:18;;;;;;;19.85;4.22;;;;;;;;;;5012056;28;20099;-66
2022/05/08 05:01:44;;;;;;;14.73;5.10;;;;;;;;;;5012719;28;20038;-66
2022/05/08 05:04:10;;;;;;;18.90;4.60;;;;;;;;;;5012866;28;20038;-66
2022/05/08 05:06:36;;;;;;;12.88;4.20;;;;;;;;;;5011785;28;20504;-66
2022/05/08 05:09:02;;;;;;;17.20;4.38;;;;;;;;;;5012447;28;20041;-66
2022/05/08 05:11:28;;;;;;;16.00;4.57;;;;;;;;;;5012924;28;20121;-66
2022/05/08 05:13:54;;;;;;;17.02;4.72;;;;;;;;;;5011474;28;20045;-66
2022/05/08 05:16:20;;;;;;;14.80;4.55;;;;;;;;;;5012409;28;20091;-66
2022/05/08 05:18:45;;;;;;;19.60;5.03;;;;;;;;;;5012356;28;20038;-66
2022/05/08 05:21:11;;;;;;;13.70;4.30;;;;;;;;;;5011687;28;20447;-66
2022/05/08 05:23:37;;;;;;;16.52;5.32;;;;;;;;;;5012339;28;20096;-66
2022/05/08 05:26:04;;;;;;;13.43;4.68;;;;;;;;;;5011122;28;20034;-66
2022/05/08 05:28:31;;;;;;;10.38;3.95;;;;;;;;;;5011574;28;20115;-66
2022/05/08 05:30:57;;;;;;;16.48;4.50;;;;;;;;;;5012235;28;20096;-66
2022/05/08 05:33:23;;;;;;;13.60;4.35;;;;;;;;;;5012192;28;20432;-66
2022/05/08 05:35:49;;;;;;;11.98;4.00;;;;;;;;;;5011673;28;20041;-66
2022/05/08 05:38:15;;;;;;;11.80;4.13;;;;;;;;;;5011616;28;20042;-66
2022/05/08 05:40:41;;;;;;;17.90;4.63;;;;;;;;;;5011825;28;20176;-66
2022/05/08 05:43:07;;;;;;;12.05;4.10;;;;;;;;;;5012017;28;20065;-66
2022/05/08 05:45:33;;;;;;;16.23;4.22;;;;;;;;;;5011287;28;20465;-66
2022/05/08 05:48:00;;;;;;;13.68;4.28;;;;;;;;;;5011501;28;20042;-66
2022/05/08 05:50:27;;;;;;;14.95;3.88;;;;;;;;;;5011511;28;20045;-67
2022/05/08 05:52:53;;;;;;;14.38;3.83;;;;;;;;;;5011076;28;20115;-67
2022/05/08 05:55:20;;;;;;;16.23;3.83;;;;;;;;;;5011745;28;20041;-67
2022/05/08 05:57:46;;;;;;;15.23;4.22;;;;;;;;;;5011600;28;20038;-67
2022/05/08 06:00:16;;;;;;;14.25;3.58;;;;;;;;;;5010826;28;20439;-66
2022/05/08 06:02:43;;;;;;;15.52;3.83;;;;;;;;;;5011218;28;20042;-66
2022/05/08 06:05:10;;;;;;;12.57;3.83;;;;;;;;;;5011693;28;20034;-66
2022/05/08 06:07:37;;;;;;;11.30;3.15;;;;;;;;;;5010529;28;20062;-66
2022/05/08 06:10:05;;;;;;;12.57;3.75;;;;;;;;;;5011230;28;20049;-66
2022/05/08 06:12:31;;;;;;;15.18;3.40;;;;;;;;;;5011807;28;20077;-66
2022/05/08 06:14:57;;;;;;;17.35;3.38;;;;;;;;;;5010856;28;20166;-66
2022/05/08 06:17:23;;;;;;;16.98;2.85;;;;;;;;;;5011170;28;20552;-66
2022/05/08 06:19:49;;;;;;;15.00;3.25;;;;;;;;;;5010956;28;20124;-67
2022/05/08 06:22:15;;;;;;;6.47;2.80;;;;;;;;;;5010661;28;20499;-67
2022/05/08 06:24:41;;;;;;;12.13;3.00;;;;;;;;;;5011144;28;20385;-67
2022/05/08 06:27:07;;;;;;;10.25;2.35;;;;;;;;;;5010965;28;20456;-66
2022/05/08 06:29:33;;;;;;;12.50;3.28;;;;;;;;;;5010307;28;20132;-66
2022/05/08 06:32:00;;;;;;;7.47;2.85;;;;;;;;;;5009816;28;20496;-66
2022/05/08 06:34:26;;;;;;;12.95;2.30;;;;;;;;;;5010910;28;20129;-66
2022/05/08 06:36:52;;;;;;;8.93;2.42;;;;;;;;;;5010007;28;20389;-66
2022/05/08 06:39:18;;;;;;;10.80;2.15;;;;;;;;;;5010966;28;20092;-66
2022/05/08 06:41:44;;;;;;;12.15;2.28;;;;;;;;;;5010950;28;20501;-66
2022/05/08 06:44:10;;;;;;;11.40;2.03;;;;;;;;;;5010231;28;20497;-66
2022/05/08 06:46:36;;;;;;;10.02;2.25;;;;;;;;;;5011241;28;20433;-66
2022/05/08 06:49:03;;;;;;;7.43;2.05;;;;;;;;;;5010691;28;20042;-66
2022/05/08 06:51:29;;;;;;;9.90;1.50;;;;;;;;;;5010077;28;20121;-66
2022/05/08 06:53:55;;;;;;;4.72;1.73;;;;;;;;;;5010673;28;20037;-66
2022/05/08 06:56:21;;;;;;;10.07;2.13;;;;;;;;;;5010473;28;20148;-66
2022/05/08 07:01:35;;;;;;;8.82;1.83;;;;;;;;;;5010636;28;20045;-66
2022/05/08 07:04:02;;;;;;;13.43;2.10;;;;;;;;;;5010498;28;20033;-67
2022/05/08 07:06:28;;;;;;;10.88;2.00;;;;;;;;;;5009655;28;20076;-67
2022/05/08 07:08:54;;;;;;;11.75;2.00;;;;;;;;;;5010413;28;20073;-67
2022/05/08 07:11:20;;;;;;;12.77;2.03;;;;;;;;;;5025724;28;20472;-67
2022/05/08 07:13:46;;;;;;;9.75;1.77;;;;;;;;;;5009342;28;20045;-67
2022/05/08 07:16:12;;;;;;;7.60;1.52;;;;;;;;;;5009965;28;20046;-67
2022/05/08 07:18:38;;;;;;;9.27;1.65;;;;;;;;;;5010335;28;20164;-67
2022/05/08 07:21:05;;;;;;;11.85;1.52;;;;;;;;;;5009757;28;20107;-67
2022/05/08 07:23:32;;;;;;;5.18;1.65;;;;;;;;;;5010419;28;20079;-67
2022/05/08 07:25:58;;;;;;;7.88;2.03;;;;;;;;;;5010354;28;20038;-67
2022/05/08 07:28:24;;;;;;;4.88;1.40;;;;;;;;;;5009766;28;20045;-67
2022/05/08 07:30:50;;;;;;;6.57;1.67;;;;;;;;;;5010300;28;20041;-67
2022/05/08 07:33:16;;;;;;;5.70;1.42;;;;;;;;;;5010584;28;20503;-67
2022/05/08 07:38:28;;;;;;;9.90;1.88;;;;;;;;;;5009911;28;20050;-67
2022/05/08 07:40:54;;;;;;;9.77;1.75;;;;;;;;;;5010232;28;20401;-67
2022/05/08 07:43:20;;;;;;;7.95;1.90;;;;;;;;;;5009254;28;20053;-67
2022/05/08 07:45:46;;;;;;;7.70;1.70;;;;;;;;;;5010162;28;20042;-67
2022/05/08 07:48:12;;;;;;;7.43;1.60;;;;;;;;;;5010003;28;20499;-67
2022/05/08 07:50:38;;;;;;;6.35;1.52;;;;;;;;;;5009379;28;20060;-67
2022/05/08 07:53:04;;;;;;;8.63;1.83;;;;;;;;;;5010047;28;20481;-67
2022/05/08 07:55:32;;;;;;;11.48;1.75;;;;;;;;;;5010107;28;20439;-67
2022/05/08 07:57:58;;;;;;;7.22;2.13;;;;;;;;;;5009354;28;20054;-67
2022/05/08 08:00:24;;;;;;;9.48;1.80;;;;;;;;;;5024967;28;20452;-67
2022/05/08 08:02:50;;;;;;;7.53;1.45;;;;;;;;;;5010093;28;20088;-67
2022/05/08 08:05:16;;;;;;;7.10;1.70;;;;;;;;;;5009606;28;20034;-67
2022/05/08 08:07:42;;;;;;;8.23;1.55;;;;;;;;;;5009980;28;20477;-67
2022/05/08 08:10:08;;;;;;;8.02;1.73;;;;;;;;;;5009905;28;20124;-67
2022/05/08 08:12:34;;;;;;;9.35;1.90;;;;;;;;;;5009084;28;20042;-67
2022/05/08 08:15:00;;;;;;;5.90;1.50;;;;;;;;;;5009904;28;20124;-67
2022/05/08 08:17:27;;;;;;;8.73;1.52;;;;;;;;;;5008809;28;20121;-67
2022/05/08 08:19:54;;;;;;;7.03;1.70;;;;;;;;;;5009142;28;20068;-67
2022/05/08 08:22:21;;;;;;;4.85;1.45;;;;;;;;;;5010019;28;20697;-67
2022/05/08 08:24:47;;;;;;;7.25;1.75;;;;;;;;;;5008506;28;20202;-67
2022/05/08 08:27:13;;;;;;;8.77;1.90;;;;;;;;;;5012454;28;20117;-67
2022/05/08 08:29:39;;;;;;;12.80;2.38;;;;;;;;;;5013206;28;20118;-67
2022/05/08 08:32:05;;;;;;;14.25;2.72;;;;;;;;;;5012205;28;20041;-67
2022/05/08 08:34:31;;;;;;;12.25;1.73;;;;;;;;;;5012505;28;20077;-67
2022/05/08 08:36:57;;;;;;;13.95;2.53;;;;;;;;;;5012956;28;20080;-67
2022/05/08 08:39:23;;;;;;;8.75;1.88;;;;;;;;;;5013109;28;20072;-67
2022/05/08 08:41:54;;;;;;;6.72;1.70;;;;;;;;;;5012588;28;20042;-67
2022/05/08 08:49:52;;;;;;;13.63;2.13;;;;;;;;;;5012001;28;20112;-67
2022/05/08 08:52:22;;;;;;;12.63;2.33;;;;;;;;;;5012980;28;20046;-67
2022/05/08 08:54:48;;;;;;;7.43;1.92;;;;;;;;;;5012911;28;20077;-67
2022/05/08 08:57:14;;;;;;;9.43;2.08;;;;;;;;;;5011899;28;20125;-67
2022/05/08 08:59:40;;;;;;;9.20;2.10;;;;;;;;;;5012372;28;20140;-67
2022/05/08 09:02:14;;;;;;;8.35;2.47;;;;;;;;;;5012646;28;20118;-67
2022/05/08 09:04:41;;;;;;;7.03;1.70;;;;;;;;;;5011680;28;20049;-67
2022/05/08 09:07:26;;;;;;;10.88;2.50;;;;;;;;;;5010857;28;20081;-67
2022/05/08 09:10:05;;;;;;;14.98;2.20;;;;;;;;;;5012349;28;20049;-67
2022/05/08 09:12:31;;;;;;;9.63;2.00;;;;;;;;;;5011931;28;20052;-67
2022/05/08 09:14:57;;;;;;;12.57;2.13;;;;;;;;;;5012473;28;20041;-67
2022/05/08 09:17:23;;;;;;;7.80;2.17;;;;;;;;;;5012373;28;20060;-67
2022/05/08 09:19:49;;;;;;;7.75;1.88;;;;;;;;;;5011573;28;20045;-67
2022/05/08 09:22:18;;;;;;;13.70;2.25;;;;;;;;;;5012289;28;20087;-67
2022/05/08 09:24:54;;;;;;;9.73;1.90;;;;;;;;;;5012229;28;20048;-67
2022/05/08 09:27:20;;;;;;;9.70;1.63;;;;;;;;;;5011386;28;20129;-67
2022/05/08 09:29:46;;;;;;;8.75;1.70;;;;;;;;;;5012137;28;20049;-67
2022/05/08 09:32:31;;;;;;;9.32;1.90;;;;;;;;;;5012076;28;20045;-67
2022/05/08 09:34:57;;;;;;;9.60;2.17;;;;;;;;;;5011442;28;20073;-67
2022/05/08 09:37:24;;;;;;;10.32;1.60;;;;;;;;;;5011218;28;20038;-67
2022/05/08 09:39:50;;;;;;;7.93;1.88;;;;;;;;;;5012019;28;20041;-67
2022/05/08 09:42:36;;;;;;;11.45;2.45;;;;;;;;;;5011033;28;20342;-67
2022/05/08 09:45:07;;;;;;;7.07;1.95;;;;;;;;;;5011815;28;20121;-67
2022/05/08 09:47:41;;;;;;;8.07;1.63;;;;;;;;;;5011161;28;20116;-67
2022/05/08 09:50:07;;;;;;;11.48;2.22;;;;;;;;;;5011718;28;20046;-67
2022/05/08 09:52:34;;;;;;;10.35;1.83;;;;;;;;;;5011639;28;20084;-67
2022/05/08 09:55:02;;;;;;;8.10;1.80;;;;;;;;;;5011098;28;20324;-67
2022/05/08 09:57:28;;;;;;;10.13;2.20;;;;;;;;;;5010208;28;20112;-67
2022/05/08 09:59:54;;;;;;;8.18;1.70;;;;;;;;;;5011545;28;20045;-66
2022/05/08 10:02:20;;;;;;;7.75;1.60;;;;;;;;;;5010901;28;20038;-66
2022/05/08 10:04:47;;;;;;;8.65;1.67;;;;;;;;;;5011418;28;20395;-66
2022/05/08 10:07:14;;;;;;;8.27;1.83;;;;;;;;;;5011070;28;20202;-66
2022/05/08 10:15:18;;;;;;;7.40;1.77;;;;;;;;;;5011240;28;20045;-66
2022/05/08 10:17:44;;;;;;;5.47;1.50;;;;;;;;;;5010593;28;20042;-66
2022/05/08 10:20:10;;;;;;;8.95;2.05;;;;;;;;;;5009517;28;20042;-66
2022/05/08 10:23:02;;;;;;;10.88;2.72;;;;;;;;;;5009696;28;20647;-66
2022/05/08 10:25:28;;;;;;;9.93;2.00;;;;;;;;;;5007637;28;20050;-66
2022/05/08 10:28:05;;;;;;;10.48;1.95;;;;;;;;;;5026096;28;20116;-66
2022/05/08 10:30:31;;;;;;;6.88;1.70;;;;;;;;;;5011017;28;20113;-66
2022/05/08 10:32:57;;;;;;;9.73;2.15;;;;;;;;;;5010424;28;20504;-66
2022/05/08 10:35:28;;;;;;;5.90;1.48;;;;;;;;;;5010984;28;20077;-66
2022/05/08 10:38:19;;;;;;;6.25;1.67;;;;;;;;;;5009354;28;20048;-66
2022/05/08 10:40:46;;;;;;;5.35;1.92;;;;;;;;;;5010549;28;20037;-66
2022/05/08 10:43:14;;;;;;;9.40;2.10;;;;;;;;;;5009453;28;20046;-66
2022/05/08 10:45:43;;;;;;;8.02;2.40;;;;;;;;;;5010954;28;20097;-66
2022/05/08 10:48:09;;;;;;;10.55;2.00;;;;;;;;;;5025031;28;20664;-66
2022/05/08 10:50:35;;;;;;;10.07;2.00;;;;;;;;;;5009907;28;20048;-66
2022/05/08 10:53:01;;;;;;;5.70;1.52;;;;;;;;;;5010683;28;20480;-66
2022/05/08 10:55:28;;;;;;;6.57;1.90;;;;;;;;;;5010209;28;20045;-66
2022/05/08 10:57:55;;;;;;;5.82;2.30;;;;;;;;;;5010536;28;20041;-66
2022/05/08 11:00:21;;;;;;;6.72;1.73;;;;;;;;;;5009539;28;20103;-66
2022/05/08 11:02:47;;;;;;;5.88;2.08;;;;;;;;;;5010204;28;20072;-66
2022/05/08 11:05:17;;;;;;;7.97;1.77;;;;;;;;;;5010269;28;20488;-66
2022/05/08 11:07:50;;;;;;;10.90;2.20;;;;;;;;;;5010535;28;20050;-66
2022/05/08 11:10:17;;;;;;;10.90;2.00;;;;;;;;;;5009748;28;20045;-66
2022/05/08 11:12:56;;;;;;;6.68;1.70;;;;;;;;;;5009245;28;20132;-66
2022/05/08 11:15:23;;;;;;;9.20;2.05;;;;;;;;;;5010468;28;20038;-66
2022/05/08 11:18:02;;;;;;;7.53;2.05;;;;;;;;;;5009688;28;20133;-66
2022/05/08 11:20:28;;;;;;;7.90;1.83;;;;;;;;;;5010578;28;20405;-66
2022/05/08 11:22:55;;;;;;;7.07;1.45;;;;;;;;;;5010450;28;20045;-66
2022/05/08 11:25:21;;;;;;;6.93;1.80;;;;;;;;;;5009717;28;20038;-66
2022/05/08 11:27:51;;;;;;;6.28;1.67;;;;;;;;;;5010285;28;20049;-66
2022/05/08 11:30:25;;;;;;;9.23;2.17;;;;;;;;;;5009905;28;20053;-67
2022/05/08 11:38:22;;;;;;;8.23;1.83;;;;;;;;;;5010905;28;20408;-66
2022/05/08 11:40:49;;;;;;;8.65;1.77;;;;;;;;;;5010768;28;20368;-66
2022/05/08 11:43:33;;;;;;;11.57;2.20;;;;;;;;;;5010694;28;20042;-66
2022/05/08 11:45:59;;;;;;;6.53;1.80;;;;;;;;;;5010513;28;20042;-66
2022/05/08 11:48:40;;;;;;;7.93;2.10;;;;;;;;;;5026052;28;20049;-66
2022/05/08 11:51:07;;;;;;;7.68;2.08;;;;;;;;;;5010995;28;20042;-66
2022/05/08 11:53:46;;;;;;;7.22;1.85;;;;;;;;;;5010078;28;20143;-66
2022/05/08 11:56:30;;;;;;;6.93;1.90;;;;;;;;;;5010976;28;20129;-66
2022/05/08 11:58:58;;;;;;;8.95;2.10;;;;;;;;;;5009741;28;20089;-66
2022/05/08 12:01:31;;;;;;;11.07;2.35;;;;;;;;;;5012432;28;20353;-66
2022/05/08 12:04:17;;;;;;;11.75;2.60;;;;;;;;;;5014539;28;20037;-66
2022/05/08 12:06:59;;;;;;;6.43;1.77;;;;;;;;;;5014201;28;20103;-67
2022/05/08 12:09:25;;;;;;;10.68;2.45;;;;;;;;;;5014099;28;20042;-67
2022/05/08 12:11:51;;;;;;;9.40;1.95;;;;;;;;;;5014240;28;20077;-67
2022/05/08 12:14:28;;;;;;;9.00;1.92;;;;;;;;;;5014573;28;20524;-67
2022/05/08 12:17:01;;;;;;;7.78;2.13;;;;;;;;;;5013703;28;20085;-67
2022/05/08 12:19:27;;;;;;;11.23;1.88;;;;;;;;;;5013989;28;20559;-67
2022/05/08 12:21:54;;;;;;;7.88;2.17;;;;;;;;;;5014301;28;20034;-67
2022/05/08 12:24:21;;;;;;;8.60;1.85;;;;;;;;;;5013623;28;20050;-67
2022/05/08 12:26:47;;;;;;;8.50;2.05;;;;;;;;;;5014198;28;20042;-67
2022/05/08 12:29:17;;;;;;;6.28;1.80;;;;;;;;;;5012501;28;20042;-67
2022/05/08 12:31:43;;;;;;;8.93;1.90;;;;;;;;;;5013222;28;20030;-67
2022/05/08 12:34:11;;;;;;;5.82;1.77;;;;;;;;;;5014135;28;20041;-67
2022/05/08 12:36:39;;;;;;;9.73;2.00;;;;;;;;;;5014019;28;20052;-67
2022/05/08 12:39:06;;;;;;;6.55;1.67;;;;;;;;;;5013298;28;20046;-67
2022/05/08 12:41:33;;;;;;;9.13;1.90;;;;;;;;;;5014304;28;20049;-67
2022/05/08 12:43:59;;;;;;;6.97;1.80;;;;;;;;;;5013652;28;20064;-67
2022/05/08 12:46:25;;;;;;;6.82;1.80;;;;;;;;;;5013235;28;20033;-67
2022/05/08 12:48:51;;;;;;;6.80;1.73;;;;;;;;;;5013500;28;20341;-67
2022/05/08 12:51:17;;;;;;;9.18;2.15;;;;;;;;;;5013169;28;20125;-67
2022/05/08 12:53:43;;;;;;;7.57;1.88;;;;;;;;;;5012482;28;20045;-67
2022/05/08 12:56:10;;;;;;;9.10;2.10;;;;;;;;;;5013091;28;20038;-67
2022/05/08 13:01:21;;;;;;;7.70;2.30;;;;;;;;;;5011397;28;20050;-67
2022/05/08 13:03:47;;;;;;;10.40;1.92;;;;;;;;;;5013615;28;20042;-67
2022/05/08 13:06:13;;;;;;;5.38;1.67;;;;;;;;;;5013128;28;20054;-67
2022/05/08 13:08:39;;;;;;;5.40;1.60;;;;;;;;;;5012719;28;20050;-67
2022/05/08 13:11:05;;;;;;;14.05;2.42;;;;;;;;;;5013388;28;20061;-67
2022/05/08 13:13:31;;;;;;;7.78;1.95;;;;;;;;;;5012112;28;20046;-67
2022/05/08 13:16:00;;;;;;;8.00;2.17;;;;;;;;;;5012784;28;20050;-67
2022/05/08 13:18:26;;;;;;;6.57;1.67;;;;;;;;;;5013494;28;20042;-67
2022/05/08 13:20:52;;;;;;;8.20;1.88;;;;;;;;;;5013702;28;20037;-67
2022/05/08 13:23:18;;;;;;;7.38;2.05;;;;;;;;;;5013005;28;20128;-67
2022/05/08 13:25:44;;;;;;;5.55;1.55;;;;;;;;;;5011927;28;20037;-67
2022/05/08 13:28:10;;;;;;;6.45;1.80;;;;;;;;;;5012248;28;20068;-67
2022/05/08 13:30:36;;;;;;;6.30;2.03;;;;;;;;;;5012636;28;20042;-68
2022/05/08 13:33:02;;;;;;;5.47;2.03;;;;;;;;;;5013277;28;20049;-68
2022/05/08 13:35:28;;;;;;;7.97;1.70;;;;;;;;;;5013157;28;20046;-68
2022/05/08 13:37:54;;;;;;;5.97;1.60;;;;;;;;;;5011972;28;20045;-68
2022/05/08 13:40:20;;;;;;;4.72;1.65;;;;;;;;;;5012076;28;20060;-68
2022/05/08 13:42:46;;;;;;;6.13;1.83;;;;;;;;;;5011197;28;20042;-68
2022/05/08 13:45:12;;;;;;;8.00;1.95;;;;;;;;;;5012171;28;20543;-68
2022/05/08 13:47:38;;;;;;;8.35;1.58;;;;;;;;;;5011646;28;20107;-68
2022/05/08 13:50:06;;;;;;;7.45;1.65;;;;;;;;;;5012921;28;20089;-68
2022/05/08 13:52:33;;;;;;;5.72;1.60;;;;;;;;;;5012465;28;20049;-68
2022/05/08 13:54:59;;;;;;;5.93;1.58;;;;;;;;;;5012900;28;20128;-68
2022/05/08 13:57:25;;;;;;;9.77;1.65;;;;;;;;;;5013011;28;20404;-68
2022/05/08 13:59:53;;;;;;;4.78;1.60;;;;;;;;;;5011021;28;20050;-68
2022/05/08 14:02:19;;;;;;;5.57;1.90;;;;;;;;;;5012981;28;20125;-68
2022/05/08 14:04:45;;;;;;;8.05;1.80;;;;;;;;;;5012927;28;20693;-68
2022/05/08 14:07:12;;;;;;;4.00;1.38;;;;;;;;;;5011400;28;20721;-68
2022/05/08 14:09:38;;;;;;;5.88;1.92;;;;;;;;;;5012656;28;20512;-68
2022/05/08 14:12:04;;;;;;;6.10;1.83;;;;;;;;;;5012407;28;20048;-68
2022/05/08 14:14:30;;;;;;;4.72;1.50;;;;;;;;;;5010544;28;20041;-68
2022/05/08 14:16:56;;;;;;;8.18;1.92;;;;;;;;;;5027701;28;20041;-68
2022/05/08 14:19:22;;;;;;;5.65;1.70;;;;;;;;;;5012452;28;20065;-68
2022/05/08 14:21:48;;;;;;;7.55;1.88;;;;;;;;;;5011923;28;20092;-68
2022/05/08 14:24:14;;;;;;;7.50;1.73;;;;;;;;;;5012299;28;20041;-68
2022/05/08 14:26:40;;;;;;;6.25;1.73;;;;;;;;;;5012007;28;20121;-68
2022/05/08 14:29:06;;;;;;;8.93;1.75;;;;;;;;;;5011562;28;20073;-68
2022/05/08 14:37:03;;;;;;;5.68;1.52;;;;;;;;;;5010082;28;20110;-68
2022/05/08 14:39:30;;;;;;;6.03;2.00;;;;;;;;;;5010848;28;20416;-68
2022/05/08 14:41:56;;;;;;;7.53;1.70;;;;;;;;;;5010986;28;20156;-68
2022/05/08 14:44:22;;;;;;;8.20;1.67;;;;;;;;;;5010173;28;20049;-68
2022/05/08 14:46:48;;;;;;;5.22;1.90;;;;;;;;;;5010874;28;20116;-68
2022/05/08 14:49:13;;;;;;;5.25;1.70;;;;;;;;;;5010679;28;20038;-68
2022/05/08 14:51:40;;;;;;;5.43;1.77;;;;;;;;;;5025305;28;20449;-68
2022/05/08 14:54:06;;;;;;;7.70;1.77;;;;;;;;;;5010770;28;20507;-68
2022/05/08 14:56:32;;;;;;;6.68;1.88;;;;;;;;;;5010786;28;20065;-68
2022/05/08 14:58:58;;;;;;;5.63;1.50;;;;;;;;;;5009990;28;20041;-68
2022/05/08 15:01:24;;;;;;;4.50;1.77;;;;;;;;;;5010603;28;20038;-68
2022/05/08 15:03:50;;;;;;;5.82;1.40;;;;;;;;;;5010663;28;20121;-68
2022/05/08 15:06:16;;;;;;;8.20;1.75;;;;;;;;;;5009814;28;20518;-68
2022/05/08 15:08:42;;;;;;;6.47;1.70;;;;;;;;;;5010481;28;20096;-68
2022/05/08 15:11:08;;;;;;;7.45;2.20;;;;;;;;;;5010496;28;20463;-68
2022/05/08 15:13:35;;;;;;;5.32;1.60;;;;;;;;;;5009932;28;20453;-68